Time;durP1;ratioP1;P1;durP2;ratioP2;P2;SDS_P1;SDS_P2;PMS_P1;PMS_P2;Temp;Humidity;BMP_temperature;BMP_pressure;BME280_temperature;BME280_humidity;BME280_pressure;Samples;Min_cycle;Max_cycle;Signal;HPM_P1;HPM_P2
2023/01/28 00:01:24;;;;;;;26.47;11.23;;;;;;;;;;5021275;28;20033;-57
2023/01/28 00:03:51;;;;;;;24.58;10.60;;;;;;;;;;5022740;28;20021;-58
2023/01/28 00:06:17;;;;;;;23.88;10.75;;;;;;;;;;5025522;28;20040;-56
2023/01/28 00:08:43;;;;;;;23.80;9.27;;;;;;;;;;5026322;28;20593;-58
2023/01/28 00:11:09;;;;;;;22.77;10.10;;;;;;;;;;5018016;28;20042;-57
2023/01/28 00:13:34;;;;;;;19.58;8.75;;;;;;;;;;5030064;28;20024;-58
2023/01/28 00:16:00;;;;;;;18.23;8.13;;;;;;;;;;5030087;28;20025;-58
2023/01/28 00:18:26;;;;;;;19.58;7.78;;;;;;;;;;5022835;28;21058;-57
2023/01/28 00:20:58;;;;;;;13.18;6.53;;;;;;;;;;5016912;28;20018;-56
2023/01/28 00:23:23;;;;;;;14.80;6.82;;;;;;;;;;5014347;28;20018;-56
2023/01/28 00:25:49;;;;;;;14.10;6.60;;;;;;;;;;5016602;28;20029;-57
2023/01/28 00:28:14;;;;;;;15.30;6.43;;;;;;;;;;5019105;28;20022;-56
2023/01/28 00:30:39;;;;;;;12.02;5.55;;;;;;;;;;5019454;28;20029;-60
2023/01/28 00:33:04;;;;;;;12.00;5.57;;;;;;;;;;5019677;28;20474;-58
2023/01/28 00:35:29;;;;;;;11.52;5.90;;;;;;;;;;5020493;28;20064;-59
2023/01/28 00:37:54;;;;;;;10.75;4.85;;;;;;;;;;5025245;28;20037;-57
2023/01/28 00:40:19;;;;;;;9.15;4.53;;;;;;;;;;5013357;28;20479;-57
2023/01/28 00:42:44;;;;;;;10.13;4.40;;;;;;;;;;5020246;28;20041;-58
2023/01/28 00:45:10;;;;;;;10.27;4.72;;;;;;;;;;5018194;28;20036;-56
2023/01/28 00:47:35;;;;;;;11.47;4.50;;;;;;;;;;5023661;28;20536;-58
2023/01/28 00:50:00;;;;;;;10.10;4.88;;;;;;;;;;5028737;28;20029;-56
2023/01/28 00:52:26;;;;;;;10.68;4.85;;;;;;;;;;5015468;28;20030;-58
2023/01/28 00:54:51;;;;;;;9.63;4.47;;;;;;;;;;5021754;28;20076;-59
2023/01/28 00:57:16;;;;;;;10.40;4.77;;;;;;;;;;5027513;28;20025;-56
2023/01/28 00:59:42;;;;;;;9.30;4.30;;;;;;;;;;5026521;28;20021;-57
2023/01/28 01:02:13;;;;;;;8.85;4.10;;;;;;;;;;5019052;28;20419;-58
2023/01/28 01:04:39;;;;;;;10.63;4.40;;;;;;;;;;5028542;28;20083;-58
2023/01/28 01:07:04;;;;;;;10.00;4.18;;;;;;;;;;5030030;28;20478;-59
2023/01/28 01:09:29;;;;;;;8.40;4.63;;;;;;;;;;5021105;28;20014;-58
2023/01/28 01:11:54;;;;;;;11.57;4.95;;;;;;;;;;5027317;28;20017;-58
2023/01/28 01:14:20;;;;;;;9.15;4.45;;;;;;;;;;5019691;28;20035;-57
2023/01/28 01:16:45;;;;;;;10.05;4.68;;;;;;;;;;5023419;28;20030;-56
2023/01/28 01:19:10;;;;;;;11.20;5.03;;;;;;;;;;5022998;28;20026;-56
2023/01/28 01:21:35;;;;;;;8.88;4.10;;;;;;;;;;5027029;28;20038;-58
2023/01/28 01:24:00;;;;;;;11.05;4.65;;;;;;;;;;5025880;28;20024;-57
2023/01/28 01:26:26;;;;;;;11.23;5.13;;;;;;;;;;5021694;28;20029;-58
2023/01/28 01:28:51;;;;;;;9.80;4.57;;;;;;;;;;5025836;28;20468;-57
2023/01/28 01:31:18;;;;;;;11.63;5.37;;;;;;;;;;5027090;28;20030;-58
2023/01/28 01:33:44;;;;;;;10.23;4.78;;;;;;;;;;5031449;28;20071;-57
2023/01/28 01:36:10;;;;;;;11.02;5.40;;;;;;;;;;5028971;28;20036;-58
2023/01/28 01:38:35;;;;;;;12.32;5.50;;;;;;;;;;5019366;28;20021;-59
2023/01/28 01:41:01;;;;;;;11.30;5.03;;;;;;;;;;5014797;28;20021;-54
2023/01/28 01:43:46;;;;;;;13.32;5.78;;;;;;;;;;5028230;28;20538;-56
2023/01/28 01:46:12;;;;;;;14.05;5.55;;;;;;;;;;5021946;28;20112;-56
2023/01/28 01:48:37;;;;;;;13.40;5.28;;;;;;;;;;5029390;28;20119;-56
2023/01/28 01:51:10;;;;;;;11.47;5.43;;;;;;;;;;5023237;28;20026;-56
2023/01/28 01:53:35;;;;;;;;;;;;;;;;;;5018769;28;20025;-56
2023/01/28 01:56:02;;;;;;;13.93;5.35;;;;;;;;;;5021173;28;19913;-57
2023/01/28 01:58:29;;;;;;;11.98;5.60;;;;;;;;;;5028257;28;20025;-57
2023/01/28 02:00:55;;;;;;;13.15;5.55;;;;;;;;;;5024741;28;20494;-57
2023/01/28 02:03:24;;;;;;;10.45;5.30;;;;;;;;;;5029820;28;20025;-58
2023/01/28 02:05:49;;;;;;;12.93;5.93;;;;;;;;;;5019747;28;20026;-57
2023/01/28 02:08:20;;;;;;;12.20;5.00;;;;;;;;;;5023295;28;20368;-57
2023/01/28 02:10:50;;;;;;;13.10;5.53;;;;;;;;;;5026855;28;20063;-57
2023/01/28 02:13:16;;;;;;;13.38;5.63;;;;;;;;;;5018900;28;20395;-57
2023/01/28 02:15:43;;;;;;;12.93;5.63;;;;;;;;;;5025131;28;20018;-56
2023/01/28 02:18:08;;;;;;;15.82;6.05;;;;;;;;;;5028753;28;20029;-56
2023/01/28 02:20:39;;;;;;;12.15;5.45;;;;;;;;;;5019514;28;20100;-57
2023/01/28 02:23:04;;;;;;;14.25;5.88;;;;;;;;;;5026715;28;20029;-57
2023/01/28 02:25:36;;;;;;;11.23;5.80;;;;;;;;;;5030064;28;20036;-56
2023/01/28 02:28:11;;;;;;;11.55;5.63;;;;;;;;;;5028315;28;20049;-56
2023/01/28 02:30:47;;;;;;;10.85;5.15;;;;;;;;;;5019051;28;20172;-56
2023/01/28 02:33:28;;;;;;;12.30;5.25;;;;;;;;;;5024943;28;20551;-57
2023/01/28 02:35:54;;;;;;;11.63;5.50;;;;;;;;;;5022762;28;20442;-56
2023/01/28 02:38:25;;;;;;;12.98;5.57;;;;;;;;;;5019293;28;20128;-57
2023/01/28 02:41:12;;;;;;;11.30;5.35;;;;;;;;;;5026135;28;20398;-56
2023/01/28 02:43:38;;;;;;;12.25;5.32;;;;;;;;;;5022665;28;20796;-56
2023/01/28 02:48:56;;;;;;;14.00;5.38;;;;;;;;;;5022009;28;20040;-59
2023/01/28 02:51:32;;;;;;;12.85;5.43;;;;;;;;;;5028689;28;20026;-57
2023/01/28 02:54:01;;;;;;;14.95;5.88;;;;;;;;;;5020245;28;20025;-58
2023/01/28 02:56:37;;;;;;;13.13;6.10;;;;;;;;;;5024981;28;20075;-57
2023/01/28 02:59:29;;;;;;;12.55;6.20;;;;;;;;;;5022189;28;20467;-58
2023/01/28 03:01:50;;;;;;;12.65;5.80;;;;;;;;;;5011434;28;20564;-58
2023/01/28 03:04:21;;;;;;;15.75;5.80;;;;;;;;;;5026758;28;20018;-58
2023/01/28 03:06:49;;;;;;;10.65;5.63;;;;;;;;;;5017291;28;20369;-57
2023/01/28 03:09:21;;;;;;;12.65;5.80;;;;;;;;;;5021519;28;20025;-56
2023/01/28 03:36:46;;;;;;;11.23;5.60;;;;;;;;;;5015734;28;20125;-56
2023/01/28 03:39:11;;;;;;;12.77;5.47;;;;;;;;;;5028757;28;20028;-56
2023/01/28 03:41:37;;;;;;;13.00;5.40;;;;;;;;;;5030329;28;20025;-56
2023/01/28 03:46:47;;;;;;;13.00;5.45;;;;;;;;;;5027724;28;20031;-56
2023/01/28 03:49:12;;;;;;;13.43;6.00;;;;;;;;;;5025610;28;20033;-57
2023/01/28 03:51:37;;;;;;;19.50;5.53;;;;;;;;;;5024710;28;20018;-58
2023/01/28 03:54:03;;;;;;;13.00;5.30;;;;;;;;;;5021479;28;20022;-57
2023/01/28 03:56:31;;;;;;;11.03;5.33;;;;;;;;;;5021075;28;20036;-58
2023/01/28 03:58:56;;;;;;;12.38;5.68;;;;;;;;;;5025946;28;20035;-57
2023/01/28 04:01:21;;;;;;;12.37;5.57;;;;;;;;;;5022007;28;20036;-55
2023/01/28 04:03:46;;;;;;;12.18;6.07;;;;;;;;;;5025071;28;20038;-58
2023/01/28 04:06:12;;;;;;;12.47;5.47;;;;;;;;;;5028198;28;20032;-57
2023/01/28 04:08:37;;;;;;;13.33;5.67;;;;;;;;;;5022956;28;20453;-57
2023/01/28 04:11:14;;;;;;;10.50;5.40;;;;;;;;;;5025546;28;20106;-57
2023/01/28 04:13:40;;;;;;;11.35;5.22;;;;;;;;;;5018240;28;20500;-58
2023/01/28 04:16:05;;;;;;;13.80;5.40;;;;;;;;;;5024671;28;20036;-57
2023/01/28 04:18:30;;;;;;;13.07;5.43;;;;;;;;;;5024282;28;20117;-57
2023/01/28 04:20:55;;;;;;;11.82;4.75;;;;;;;;;;5018003;28;20021;-58
2023/01/28 04:23:21;;;;;;;10.75;4.85;;;;;;;;;;5016378;28;20037;-55
2023/01/28 04:25:48;;;;;;;10.95;4.97;;;;;;;;;;5027319;28;20489;-57
2023/01/28 04:28:13;;;;;;;11.52;4.97;;;;;;;;;;5028558;28;20029;-55
2023/01/28 04:30:38;;;;;;;9.27;4.75;;;;;;;;;;5026975;28;20084;-57
2023/01/28 04:33:03;;;;;;;11.05;4.80;;;;;;;;;;5018387;28;20064;-55
2023/01/28 04:35:29;;;;;;;12.15;4.97;;;;;;;;;;5025928;28;20025;-57
2023/01/28 04:37:54;;;;;;;10.77;4.70;;;;;;;;;;5023604;28;20440;-56
2023/01/28 04:40:19;;;;;;;10.05;4.63;;;;;;;;;;5022973;28;20049;-58
2023/01/28 04:42:51;;;;;;;12.18;5.30;;;;;;;;;;5032859;28;20041;-56
2023/01/28 04:45:16;;;;;;;10.48;4.03;;;;;;;;;;5017219;28;20073;-57
2023/01/28 04:47:42;;;;;;;10.70;4.00;;;;;;;;;;5027589;28;20025;-57
2023/01/28 04:50:07;;;;;;;10.47;3.83;;;;;;;;;;5023870;28;20057;-56
2023/01/28 04:52:32;;;;;;;8.80;3.80;;;;;;;;;;5028144;28;20033;-56
2023/01/28 04:54:59;;;;;;;8.27;3.43;;;;;;;;;;5023015;28;20387;-56
2023/01/28 04:57:25;;;;;;;8.88;3.78;;;;;;;;;;5025914;28;20033;-58
2023/01/28 04:59:50;;;;;;;9.40;3.50;;;;;;;;;;5027720;28;20025;-57
2023/01/28 05:02:15;;;;;;;8.63;3.13;;;;;;;;;;5020474;28;20033;-57
2023/01/28 05:04:40;;;;;;;8.40;3.38;;;;;;;;;;5020617;28;20029;-56
2023/01/28 05:07:05;;;;;;;8.80;3.10;;;;;;;;;;5029554;28;20025;-57
2023/01/28 05:09:30;;;;;;;7.97;3.40;;;;;;;;;;5027313;28;20025;-57
2023/01/28 05:11:56;;;;;;;7.55;3.05;;;;;;;;;;5028538;28;20410;-58
2023/01/28 05:14:21;;;;;;;7.90;3.72;;;;;;;;;;5027657;28;20030;-57
2023/01/28 05:16:46;;;;;;;9.20;3.50;;;;;;;;;;5021401;28;20060;-57
2023/01/28 05:19:11;;;;;;;9.50;3.58;;;;;;;;;;5020037;28;20029;-56
2023/01/28 05:21:36;;;;;;;6.63;2.90;;;;;;;;;;5026729;28;20104;-57
2023/01/28 05:24:01;;;;;;;8.13;3.03;;;;;;;;;;5024719;28;20040;-56
2023/01/28 05:26:26;;;;;;;6.57;3.17;;;;;;;;;;5013259;28;20391;-57
2023/01/28 05:28:52;;;;;;;5.28;2.60;;;;;;;;;;5018726;28;20082;-57
2023/01/28 05:31:17;;;;;;;6.90;2.88;;;;;;;;;;5019924;28;20084;-57
2023/01/28 05:33:42;;;;;;;7.30;3.13;;;;;;;;;;5028082;28;20079;-58
2023/01/28 05:36:07;;;;;;;7.38;2.75;;;;;;;;;;5033245;28;20083;-57
2023/01/28 05:38:32;;;;;;;9.87;3.10;;;;;;;;;;5026995;28;20026;-58
2023/01/28 05:40:57;;;;;;;6.75;3.00;;;;;;;;;;5014725;28;20076;-57
2023/01/28 05:43:23;;;;;;;8.73;3.40;;;;;;;;;;5025836;28;20018;-58
2023/01/28 05:45:48;;;;;;;7.27;2.80;;;;;;;;;;5023689;28;20064;-57
2023/01/28 05:48:13;;;;;;;8.32;3.17;;;;;;;;;;5031175;28;20418;-58
2023/01/28 05:50:38;;;;;;;6.97;3.20;;;;;;;;;;5026296;28;20032;-57
2023/01/28 05:53:04;;;;;;;7.97;2.97;;;;;;;;;;5026720;28;20065;-58
2023/01/28 05:55:29;;;;;;;7.63;3.28;;;;;;;;;;5020845;28;20026;-57
2023/01/28 05:57:55;;;;;;;7.60;3.20;;;;;;;;;;5029799;28;20479;-56
2023/01/28 06:00:20;;;;;;;8.57;3.38;;;;;;;;;;5019609;28;20113;-57
2023/01/28 06:02:45;;;;;;;9.07;3.67;;;;;;;;;;5024441;28;20022;-56
2023/01/28 06:05:10;;;;;;;8.82;3.42;;;;;;;;;;5012954;28;20463;-57
2023/01/28 06:07:35;;;;;;;10.00;3.53;;;;;;;;;;5017052;28;20026;-56
2023/01/28 06:10:00;;;;;;;8.60;3.67;;;;;;;;;;5023829;28;20106;-57
2023/01/28 06:12:26;;;;;;;7.47;3.40;;;;;;;;;;5026022;28;20021;-57
2023/01/28 06:14:51;;;;;;;6.93;3.27;;;;;;;;;;5016165;28;20052;-58
2023/01/28 06:17:16;;;;;;;8.30;3.30;;;;;;;;;;5028789;28;20033;-57
2023/01/28 06:19:41;;;;;;;10.68;4.00;;;;;;;;;;5018657;28;21890;-58
2023/01/28 06:22:06;;;;;;;9.03;3.33;;;;;;;;;;5029953;28;20245;-57
2023/01/28 06:24:31;;;;;;;6.43;3.33;;;;;;;;;;5018992;28;20057;-58
2023/01/28 06:26:57;;;;;;;7.30;3.00;;;;;;;;;;5023537;28;20383;-57
2023/01/28 06:29:22;;;;;;;9.40;2.97;;;;;;;;;;5022072;28;20391;-58
2023/01/28 06:31:47;;;;;;;7.60;3.37;;;;;;;;;;5025732;28;20029;-57
2023/01/28 06:34:12;;;;;;;11.57;3.93;;;;;;;;;;5016462;28;20017;-57
2023/01/28 06:36:37;;;;;;;7.57;3.10;;;;;;;;;;5030906;28;20038;-57
2023/01/28 06:39:03;;;;;;;9.10;3.40;;;;;;;;;;5015263;28;20022;-58
2023/01/28 06:41:28;;;;;;;6.95;3.20;;;;;;;;;;5027016;28;20188;-56
2023/01/28 06:43:53;;;;;;;6.38;2.63;;;;;;;;;;5017425;28;20052;-58
2023/01/28 06:46:18;;;;;;;8.15;2.83;;;;;;;;;;5028569;28;20083;-57
2023/01/28 06:48:43;;;;;;;8.70;3.00;;;;;;;;;;5027940;28;20021;-58
2023/01/28 06:51:08;;;;;;;6.70;3.13;;;;;;;;;;5019596;28;20176;-57
2023/01/28 06:53:34;;;;;;;6.68;3.08;;;;;;;;;;5020199;28;20021;-57
2023/01/28 06:55:59;;;;;;;6.17;3.10;;;;;;;;;;5025411;28;20090;-58
2023/01/28 06:58:24;;;;;;;6.80;3.27;;;;;;;;;;5023890;28;20037;-59
2023/01/28 07:00:49;;;;;;;7.07;2.70;;;;;;;;;;5026382;28;20025;-58
2023/01/28 07:03:14;;;;;;;7.15;2.85;;;;;;;;;;5012433;28;20053;-58
2023/01/28 07:05:39;;;;;;;6.67;3.23;;;;;;;;;;5021578;28;20029;-56
2023/01/28 07:08:05;;;;;;;8.10;3.63;;;;;;;;;;5028020;28;20042;-60
2023/01/28 07:10:30;;;;;;;6.65;2.95;;;;;;;;;;5021966;28;20611;-57
2023/01/28 07:12:55;;;;;;;6.20;2.60;;;;;;;;;;5018288;28;20022;-58
2023/01/28 07:15:21;;;;;;;7.55;2.83;;;;;;;;;;5017705;28;20051;-57
2023/01/28 07:17:46;;;;;;;6.83;3.03;;;;;;;;;;5020362;28;20030;-58
2023/01/28 07:20:12;;;;;;;6.95;3.08;;;;;;;;;;5023261;28;20025;-57
2023/01/28 07:22:38;;;;;;;5.97;2.83;;;;;;;;;;5030140;28;20056;-58
2023/01/28 07:25:04;;;;;;;8.10;2.70;;;;;;;;;;5028107;28;20478;-57
2023/01/28 07:27:29;;;;;;;9.43;3.40;;;;;;;;;;5019566;28;20032;-57
2023/01/28 07:29:54;;;;;;;7.10;2.78;;;;;;;;;;5019729;28;20022;-59
2023/01/28 07:32:20;;;;;;;7.13;3.10;;;;;;;;;;5023800;28;20120;-55
2023/01/28 07:34:45;;;;;;;8.38;3.17;;;;;;;;;;5015390;28;20017;-57
2023/01/28 07:37:10;;;;;;;7.32;2.67;;;;;;;;;;5014828;28;20042;-56
2023/01/28 07:39:35;;;;;;;7.82;2.80;;;;;;;;;;5024305;28;20064;-57
2023/01/28 07:42:00;;;;;;;5.65;2.47;;;;;;;;;;5021940;28;20029;-56
2023/01/28 07:44:26;;;;;;;8.10;2.70;;;;;;;;;;5027412;28;20021;-57
2023/01/28 07:46:51;;;;;;;5.70;2.70;;;;;;;;;;5025113;28;20026;-57
2023/01/28 07:49:16;;;;;;;7.17;2.83;;;;;;;;;;5021293;28;20556;-57
2023/01/28 07:51:41;;;;;;;7.30;2.55;;;;;;;;;;5027125;28;20028;-57
2023/01/28 07:54:07;;;;;;;6.20;2.33;;;;;;;;;;5014905;28;20024;-58
2023/01/28 07:56:32;;;;;;;5.45;2.30;;;;;;;;;;5020436;28;20466;-57
2023/01/28 07:58:57;;;;;;;6.73;2.60;;;;;;;;;;5032862;28;20014;-56
2023/01/28 08:01:23;;;;;;;5.65;2.55;;;;;;;;;;5023399;28;20116;-58
2023/01/28 08:03:48;;;;;;;6.72;2.22;;;;;;;;;;5023983;28;20486;-55
2023/01/28 08:06:13;;;;;;;6.97;2.10;;;;;;;;;;5021655;28;20021;-56
2023/01/28 08:08:38;;;;;;;5.60;2.20;;;;;;;;;;5022225;28;20045;-58
2023/01/28 08:11:07;;;;;;;5.32;2.20;;;;;;;;;;5031127;28;20025;-58
2023/01/28 08:13:32;;;;;;;5.20;2.03;;;;;;;;;;5032716;28;20021;-58
2023/01/28 08:15:58;;;;;;;5.23;2.30;;;;;;;;;;5024727;28;20033;-58
2023/01/28 08:18:23;;;;;;;5.72;2.22;;;;;;;;;;5029982;28;20033;-58
2023/01/28 08:20:48;;;;;;;5.40;2.10;;;;;;;;;;5024665;28;20088;-58
2023/01/28 08:23:17;;;;;;;5.07;2.03;;;;;;;;;;5030930;28;20025;-59
2023/01/28 08:25:43;;;;;;;5.95;2.10;;;;;;;;;;5031702;28;20522;-59
2023/01/28 08:28:08;;;;;;;6.13;2.30;;;;;;;;;;5031447;28;20074;-59
2023/01/28 08:30:36;;;;;;;5.97;2.50;;;;;;;;;;5026661;28;20018;-58
2023/01/28 08:33:01;;;;;;;5.60;2.30;;;;;;;;;;5029397;28;20478;-57
2023/01/28 08:35:27;;;;;;;6.80;2.30;;;;;;;;;;5025994;28;20018;-58
2023/01/28 08:37:52;;;;;;;4.72;2.30;;;;;;;;;;5030821;28;20091;-59
2023/01/28 08:40:17;;;;;;;6.03;2.60;;;;;;;;;;5024281;28;20018;-57
2023/01/28 08:42:49;;;;;;;6.07;2.40;;;;;;;;;;5033664;28;20053;-58
2023/01/28 08:45:15;;;;;;;7.40;2.67;;;;;;;;;;5025129;28;20056;-59
2023/01/28 08:47:48;;;;;;;5.68;2.08;;;;;;;;;;5025666;28;20502;-59
2023/01/28 08:50:13;;;;;;;5.80;2.33;;;;;;;;;;5032489;28;20033;-59
2023/01/28 08:52:39;;;;;;;6.57;2.47;;;;;;;;;;5026099;28;20033;-57
2023/01/28 08:55:04;;;;;;;5.90;2.40;;;;;;;;;;5030245;28;20032;-58
2023/01/28 08:57:29;;;;;;;9.05;2.70;;;;;;;;;;5023659;28;20104;-58
2023/01/28 08:59:54;;;;;;;6.43;2.30;;;;;;;;;;5015715;28;20732;-59
2023/01/28 09:02:19;;;;;;;5.55;2.40;;;;;;;;;;5029504;28;20034;-58
2023/01/28 09:04:45;;;;;;;5.22;2.17;;;;;;;;;;5024751;28;20092;-58
2023/01/28 09:07:10;;;;;;;5.97;2.28;;;;;;;;;;5024867;28;20435;-58
2023/01/28 09:09:35;;;;;;;5.28;2.00;;;;;;;;;;5021801;28;20018;-56
2023/01/28 09:12:00;;;;;;;6.90;2.30;;;;;;;;;;5021352;28;20122;-58
2023/01/28 09:14:25;;;;;;;6.75;2.33;;;;;;;;;;5023668;28;20017;-58
2023/01/28 09:16:50;;;;;;;8.68;2.90;;;;;;;;;;5029617;28;20045;-59
2023/01/28 09:19:15;;;;;;;5.90;2.30;;;;;;;;;;5022397;28;20382;-59
2023/01/28 09:21:41;;;;;;;5.72;2.40;;;;;;;;;;5028226;28;20029;-58
2023/01/28 09:24:09;;;;;;;6.28;2.25;;;;;;;;;;5030938;28;20417;-59
2023/01/28 09:26:34;;;;;;;5.45;2.03;;;;;;;;;;5020207;28;20120;-60
2023/01/28 09:28:59;;;;;;;4.83;2.30;;;;;;;;;;5013085;28;20110;-59
2023/01/28 09:31:24;;;;;;;7.85;2.47;;;;;;;;;;5012664;28;20024;-60
2023/01/28 09:33:55;;;;;;;5.90;2.20;;;;;;;;;;5013013;28;20026;-58
2023/01/28 09:36:20;;;;;;;8.18;2.53;;;;;;;;;;5015837;28;20534;-58
2023/01/28 09:38:45;;;;;;;6.40;2.20;;;;;;;;;;5032297;28;20100;-59
2023/01/28 09:41:21;;;;;;;8.80;3.80;;;;;;;;;;5014134;28;20550;-58
2023/01/28 09:44:02;;;;;;;7.82;2.90;;;;;;;;;;5012611;28;20569;-58
2023/01/28 09:46:30;;;;;;;7.00;3.08;;;;;;;;;;5012938;28;20073;-58
2023/01/28 09:48:56;;;;;;;7.22;3.10;;;;;;;;;;5012472;28;20122;-58
2023/01/28 09:51:21;;;;;;;6.60;2.97;;;;;;;;;;5025068;28;20071;-59
2023/01/28 09:53:49;;;;;;;7.25;2.65;;;;;;;;;;5012248;28;20033;-58
2023/01/28 09:56:24;;;;;;;11.13;4.32;;;;;;;;;;5012397;28;20600;-59
2023/01/28 09:58:49;;;;;;;8.02;3.40;;;;;;;;;;5012625;28;20087;-58
2023/01/28 10:01:14;;;;;;;9.63;3.30;;;;;;;;;;5019187;28;20025;-60
2023/01/28 10:03:56;;;;;;;7.20;2.70;;;;;;;;;;5026224;28;20371;-59
2023/01/28 10:06:21;;;;;;;6.65;2.72;;;;;;;;;;5023443;28;20104;-59
2023/01/28 10:09:05;;;;;;;5.75;2.42;;;;;;;;;;5017432;28;20107;-59
2023/01/28 10:11:49;;;;;;;5.65;2.55;;;;;;;;;;5019932;28;20033;-60
2023/01/28 10:14:14;;;;;;;;;;;;;;;;;;5029948;28;20026;-61
2023/01/28 10:16:49;;;;;;;7.68;2.90;;;;;;;;;;5023469;28;19962;-59
2023/01/28 10:19:29;;;;;;;6.10;2.70;;;;;;;;;;5016160;28;20498;-59
2023/01/28 10:22:01;;;;;;;5.43;2.50;;;;;;;;;;5022739;28;20032;-61
2023/01/28 10:24:37;;;;;;;5.93;2.00;;;;;;;;;;5021146;28;20025;-59
2023/01/28 10:27:08;;;;;;;5.88;2.15;;;;;;;;;;5019914;28;20025;-60
2023/01/28 10:29:34;;;;;;;7.20;2.55;;;;;;;;;;5011264;28;20025;-60
2023/01/28 10:32:14;;;;;;;5.13;2.17;;;;;;;;;;5011800;28;20022;-60
2023/01/28 10:34:40;;;;;;;5.70;2.00;;;;;;;;;;5017129;28;20491;-60
2023/01/28 10:37:05;;;;;;;4.87;1.83;;;;;;;;;;5023155;28;20532;-58
2023/01/28 10:39:30;;;;;;;5.85;2.15;;;;;;;;;;5021612;28;20398;-61
2023/01/28 10:41:55;;;;;;;5.00;2.00;;;;;;;;;;5031555;28;20395;-59
2023/01/28 10:44:25;;;;;;;4.63;2.07;;;;;;;;;;5031601;28;20009;-58
2023/01/28 10:46:52;;;;;;;6.43;1.73;;;;;;;;;;5031813;28;20461;-59
2023/01/28 10:49:20;;;;;;;6.85;2.45;;;;;;;;;;5134874;22;20056;-64
2023/01/28 10:51:45;;;;;;;5.75;2.10;;;;;;;;;;5041830;28;20031;-64
2023/01/28 10:54:17;;;;;;;6.63;2.00;;;;;;;;;;5050531;28;20124;-63
2023/01/28 10:56:42;;;;;;;6.10;2.00;;;;;;;;;;5042787;28;20061;-64
2023/01/28 10:59:28;;;;;;;6.37;1.67;;;;;;;;;;5049021;28;20430;-65
2023/01/28 11:01:55;;;;;;;6.35;2.00;;;;;;;;;;5051149;28;20450;-63
2023/01/28 11:04:24;;;;;;;5.05;1.80;;;;;;;;;;5043412;28;20075;-63
2023/01/28 11:06:52;;;;;;;5.15;1.90;;;;;;;;;;5043484;28;20631;-61
2023/01/28 11:09:19;;;;;;;5.13;1.90;;;;;;;;;;5049601;28;20080;-61
2023/01/28 11:11:44;;;;;;;;;;;;;;;;;;5051523;28;20367;-62
2023/01/28 11:14:18;;;;;;;6.10;2.30;;;;;;;;;;5049994;28;20296;-62
2023/01/28 11:16:43;;;;;;;5.40;2.20;;;;;;;;;;5049135;28;20025;-62
2023/01/28 11:19:10;;;;;;;5.27;1.83;;;;;;;;;;5039999;28;20043;-61
2023/01/28 11:21:36;;;;;;;5.82;1.98;;;;;;;;;;5050698;28;20023;-61
2023/01/28 11:24:03;;;;;;;4.38;1.70;;;;;;;;;;5050472;28;20032;-60
2023/01/28 11:26:31;;;;;;;6.18;1.80;;;;;;;;;;5044471;28;20036;-61
2023/01/28 11:28:56;;;;;;;5.55;1.80;;;;;;;;;;5048326;28;20029;-61
2023/01/28 11:31:24;;;;;;;4.88;1.85;;;;;;;;;;5047285;28;20094;-62
2023/01/28 11:33:56;;;;;;;6.80;2.13;;;;;;;;;;5041919;28;20067;-61
2023/01/28 11:36:25;;;;;;;5.30;2.08;;;;;;;;;;5051124;28;20032;-61
2023/01/28 11:38:54;;;;;;;5.18;1.88;;;;;;;;;;5050961;28;20021;-61
2023/01/28 11:41:25;;;;;;;4.90;1.75;;;;;;;;;;5050067;28;20033;-62
2023/01/28 11:43:51;;;;;;;6.15;1.92;;;;;;;;;;5041317;28;20043;-61
2023/01/28 11:46:19;;;;;;;4.03;1.60;;;;;;;;;;5050016;28;20032;-62
2023/01/28 11:49:03;;;;;;;4.47;1.73;;;;;;;;;;5051896;28;20021;-62
2023/01/28 11:51:48;;;;;;;4.85;1.73;;;;;;;;;;5031071;28;20045;-60
2023/01/28 11:54:34;;;;;;;4.13;1.50;;;;;;;;;;5020937;28;20033;-61
2023/01/28 11:57:02;;;;;;;4.43;1.85;;;;;;;;;;5032977;28;20025;-61
2023/01/28 11:59:53;;;;;;;6.00;1.98;;;;;;;;;;5036892;28;20013;-62
2023/01/28 12:02:24;;;;;;;5.13;1.85;;;;;;;;;;5043676;28;20047;-61
2023/01/28 12:05:06;;;;;;;4.97;1.85;;;;;;;;;;5046626;28;20463;-60
2023/01/28 12:07:31;;;;;;;6.32;1.88;;;;;;;;;;5031117;28;20017;-63
2023/01/28 12:10:17;;;;;;;4.53;1.73;;;;;;;;;;5029374;28;20056;-63
2023/01/28 12:13:02;;;;;;;5.75;2.10;;;;;;;;;;5030714;28;20037;-62
2023/01/28 12:15:59;;;;;;;6.03;1.80;;;;;;;;;;5040286;28;20026;-62
2023/01/28 12:18:27;;;;;;;5.00;1.50;;;;;;;;;;5041418;28;20181;-62
2023/01/28 12:21:07;;;;;;;5.20;1.90;;;;;;;;;;5049617;28;20017;-62
2023/01/28 12:23:47;;;;;;;4.65;1.58;;;;;;;;;;5049050;28;20028;-63
2023/01/28 12:26:17;;;;;;;5.60;1.92;;;;;;;;;;5048942;28;20051;-63
2023/01/28 12:28:58;;;;;;;5.20;1.70;;;;;;;;;;5046856;28;20009;-63
2023/01/28 12:31:47;;;;;;;5.20;2.05;;;;;;;;;;5046159;28;20096;-63
2023/01/28 12:34:21;;;;;;;6.57;2.08;;;;;;;;;;5049603;28;20079;-62
2023/01/28 12:37:13;;;;;;;3.97;1.50;;;;;;;;;;5048085;28;20041;-63
2023/01/28 12:39:52;;;;;;;5.72;1.98;;;;;;;;;;5040385;28;20052;-62
2023/01/28 12:42:17;;;;;;;4.20;1.50;;;;;;;;;;5044986;28;20033;-63
2023/01/28 12:44:47;;;;;;;5.43;1.70;;;;;;;;;;5048521;28;20072;-62
2023/01/28 12:47:15;;;;;;;4.28;1.80;;;;;;;;;;5050072;28;20024;-63
2023/01/28 12:49:44;;;;;;;4.35;1.70;;;;;;;;;;5052290;28;20063;-63
2023/01/28 12:52:24;;;;;;;5.38;1.67;;;;;;;;;;5053642;28;20025;-63
2023/01/28 12:54:55;;;;;;;8.00;1.77;;;;;;;;;;5048791;28;20025;-63
2023/01/28 12:57:22;;;;;;;6.35;2.00;;;;;;;;;;5051053;28;20043;-62
2023/01/28 12:59:50;;;;;;;6.15;1.80;;;;;;;;;;5044671;28;20028;-64
2023/01/28 13:02:33;;;;;;;4.90;1.95;;;;;;;;;;5044088;28;20040;-65
2023/01/28 13:05:03;;;;;;;5.57;1.90;;;;;;;;;;5051635;28;20025;-63
2023/01/28 13:07:34;;;;;;;5.63;1.80;;;;;;;;;;5043647;28;20024;-62
2023/01/28 13:10:12;;;;;;;5.10;1.80;;;;;;;;;;5050335;28;20254;-64
2023/01/28 13:12:38;;;;;;;5.18;1.60;;;;;;;;;;5047622;28;20025;-63
2023/01/28 13:15:05;;;;;;;4.55;1.65;;;;;;;;;;5048607;28;20025;-62
2023/01/28 13:17:31;;;;;;;5.35;1.58;;;;;;;;;;5045762;28;20063;-63
2023/01/28 13:19:57;;;;;;;6.40;1.83;;;;;;;;;;5046050;28;20029;-62
2023/01/28 13:22:25;;;;;;;6.75;1.80;;;;;;;;;;5046394;28;20531;-64
2023/01/28 13:24:51;;;;;;;4.90;1.67;;;;;;;;;;5051063;28;20470;-62
2023/01/28 13:27:21;;;;;;;4.03;1.63;;;;;;;;;;5046011;28;20179;-62
2023/01/28 13:29:47;;;;;;;5.75;2.10;;;;;;;;;;5047137;28;20032;-63
2023/01/28 13:32:27;;;;;;;7.47;1.92;;;;;;;;;;5047338;28;20021;-62
2023/01/28 13:34:56;;;;;;;6.60;1.73;;;;;;;;;;5049548;28;20069;-63
2023/01/28 13:37:29;;;;;;;4.75;1.80;;;;;;;;;;5048085;28;20044;-63
2023/01/28 13:39:58;;;;;;;4.63;1.80;;;;;;;;;;5042217;28;20725;-64
2023/01/28 13:42:27;;;;;;;6.70;2.00;;;;;;;;;;5051616;28;20071;-63
2023/01/28 13:44:53;;;;;;;7.20;2.33;;;;;;;;;;5049239;28;20022;-63
2023/01/28 13:47:28;;;;;;;5.60;2.17;;;;;;;;;;5040638;28;20037;-62
2023/01/28 13:49:55;;;;;;;5.97;1.75;;;;;;;;;;5047561;28;20033;-63
2023/01/28 13:52:24;;;;;;;5.05;2.10;;;;;;;;;;5048512;28;20112;-63
2023/01/28 13:54:54;;;;;;;6.30;1.73;;;;;;;;;;5045365;28;20032;-62
2023/01/28 13:57:25;;;;;;;7.38;2.28;;;;;;;;;;5038134;28;20037;-63
2023/01/28 13:59:56;;;;;;;6.30;2.05;;;;;;;;;;5041386;28;20372;-63
2023/01/28 14:02:34;;;;;;;6.20;1.88;;;;;;;;;;5045078;28;20095;-62
2023/01/28 14:05:17;;;;;;;5.25;1.77;;;;;;;;;;5046390;28;20025;-63
2023/01/28 14:08:03;;;;;;;5.82;1.98;;;;;;;;;;5045485;28;20021;-63
2023/01/28 14:10:38;;;;;;;4.15;1.80;;;;;;;;;;5038788;28;20451;-63
2023/01/28 14:13:05;;;;;;;5.53;2.33;;;;;;;;;;5047917;28;20035;-63
2023/01/28 14:15:39;;;;;;;5.65;1.92;;;;;;;;;;5040188;28;20051;-63
2023/01/28 14:18:09;;;;;;;7.55;2.20;;;;;;;;;;5041131;28;20151;-62
2023/01/28 14:20:39;;;;;;;6.40;2.20;;;;;;;;;;5040525;28;20750;-62
2023/01/28 14:23:05;;;;;;;7.35;2.20;;;;;;;;;;5042680;28;20074;-63
2023/01/28 14:25:43;;;;;;;5.47;1.90;;;;;;;;;;5037643;28;20531;-63
2023/01/28 14:28:12;;;;;;;4.55;1.70;;;;;;;;;;5039269;28;20033;-62
2023/01/28 14:30:46;;;;;;;5.47;2.10;;;;;;;;;;5046442;28;20533;-62
2023/01/28 14:33:11;;;;;;;5.40;2.00;;;;;;;;;;5046576;28;20492;-62
2023/01/28 14:35:39;;;;;;;5.43;2.00;;;;;;;;;;5042905;28;20335;-63
2023/01/28 14:38:07;;;;;;;5.30;2.17;;;;;;;;;;5032451;28;20037;-63
2023/01/28 14:40:34;;;;;;;5.38;2.08;;;;;;;;;;5050008;28;20021;-63
2023/01/28 14:43:00;;;;;;;7.35;2.20;;;;;;;;;;5049070;28;20017;-63
2023/01/28 14:45:43;;;;;;;6.60;2.42;;;;;;;;;;5050187;28;20021;-62
2023/01/28 14:48:27;;;;;;;5.80;1.90;;;;;;;;;;5051611;28;20020;-62
2023/01/28 14:51:01;;;;;;;4.75;2.03;;;;;;;;;;5048219;28;20032;-62
2023/01/28 14:53:35;;;;;;;6.35;2.10;;;;;;;;;;5045952;28;20025;-62
2023/01/28 14:56:09;;;;;;;4.72;1.80;;;;;;;;;;5044269;28;20037;-63
2023/01/28 14:58:37;;;;;;;5.65;1.98;;;;;;;;;;5046187;28;20109;-62
2023/01/28 15:01:02;;;;;;;6.68;1.80;;;;;;;;;;5042559;28;20021;-63
2023/01/28 15:03:29;;;;;;;5.93;1.80;;;;;;;;;;5050687;28;20381;-62
2023/01/28 15:06:12;;;;;;;7.82;2.13;;;;;;;;;;5046109;28;20020;-62
2023/01/28 15:08:38;;;;;;;4.53;1.70;;;;;;;;;;5042619;28;20025;-63
2023/01/28 15:11:05;;;;;;;6.80;2.00;;;;;;;;;;5044031;28;20036;-62
2023/01/28 15:13:35;;;;;;;4.72;1.63;;;;;;;;;;5049084;28;20467;-61
2023/01/28 15:16:00;;;;;;;4.20;1.60;;;;;;;;;;5048247;28;20496;-62
2023/01/28 15:18:28;;;;;;;4.88;1.70;;;;;;;;;;5048856;28;20033;-62